Time;durP1;ratioP1;P1;durP2;ratioP2;P2;SDS_P1;SDS_P2;PMS_P1;PMS_P2;Temp;Humidity;BMP_temperature;BMP_pressure;BME280_temperature;BME280_humidity;BME280_pressure;Samples;Min_cycle;Max_cycle;Signal;HPM_P1;HPM_P2
2024/01/10 00:00:26;;;;;;;1.07;1.07;;;;;;;0.41;100.00;100695.00;5109040;27;20677;-61
2024/01/10 00:02:53;;;;;;;1.10;1.10;;;;;;;0.37;100.00;100690.66;5107847;27;20645;-61
2024/01/10 00:05:20;;;;;;;1.27;1.27;;;;;;;0.34;100.00;100699.00;5100703;28;20654;-62
2024/01/10 00:07:46;;;;;;;0.90;0.90;;;;;;;0.33;100.00;100701.47;5117580;27;20198;-61
2024/01/10 00:10:15;;;;;;;0.77;0.77;;;;;;;0.33;100.00;100711.53;5104820;28;20251;-61
2024/01/10 00:12:44;;;;;;;0.60;0.60;;;;;;;0.32;100.00;100704.81;5110319;27;20202;-63
2024/01/10 00:15:11;;;;;;;1.30;1.30;;;;;;;0.31;100.00;100705.59;5105184;28;20229;-63
2024/01/10 00:17:39;;;;;;;1.60;1.10;;;;;;;0.26;100.00;100704.63;5109097;28;20214;-62
2024/01/10 00:20:08;;;;;;;1.47;1.37;;;;;;;0.20;100.00;100710.31;5112375;27;20285;-63
2024/01/10 00:22:34;;;;;;;1.43;1.30;;;;;;;0.26;100.00;100715.53;5111226;28;20233;-62
2024/01/10 00:25:01;;;;;;;1.57;1.57;;;;;;;0.33;100.00;100711.53;5108650;27;20255;-63
2024/01/10 00:27:29;;;;;;;0.90;0.90;;;;;;;0.28;100.00;100718.13;5106521;27;20207;-62
2024/01/10 00:29:56;;;;;;;0.70;0.70;;;;;;;0.26;100.00;100709.66;5106281;28;20229;-62
2024/01/10 00:32:23;;;;;;;0.77;0.77;;;;;;;0.28;100.00;100715.59;5096790;28;20202;-62
2024/01/10 00:34:50;;;;;;;1.10;1.10;;;;;;;0.26;100.00;100717.22;5098626;28;20203;-63
2024/01/10 00:37:16;;;;;;;0.80;0.80;;;;;;;0.26;100.00;100709.66;5096678;28;20211;-62
2024/01/10 00:39:43;;;;;;;0.60;0.60;;;;;;;0.17;100.00;100706.81;5096633;28;20966;-62
2024/01/10 00:42:10;;;;;;;0.80;0.80;;;;;;;0.24;100.00;100727.25;5097598;28;20616;-62
2024/01/10 00:44:39;;;;;;;0.90;0.90;;;;;;;0.26;100.00;100729.84;5112590;27;20199;-63
2024/01/10 00:47:05;;;;;;;0.83;0.83;;;;;;;0.25;100.00;100726.44;5105199;28;20289;-63
2024/01/10 00:49:32;;;;;;;0.70;0.70;;;;;;;0.24;100.00;100721.34;5105212;27;20257;-63
2024/01/10 00:51:59;;;;;;;1.20;1.20;;;;;;;0.25;100.00;100720.53;5105303;28;20203;-63
2024/01/10 00:54:25;;;;;;;2.17;1.97;;;;;;;0.25;100.00;100728.13;5096365;28;20195;-62
2024/01/10 00:56:52;;;;;;;1.17;1.17;;;;;;;0.22;100.00;100728.00;5102171;28;21658;-63
2024/01/10 00:59:19;;;;;;;1.00;1.00;;;;;;;0.20;100.00;100732.13;5105488;27;20259;-63
2024/01/10 01:01:47;;;;;;;1.37;1.37;;;;;;;0.18;100.00;100729.56;5110029;28;20195;-62
2024/01/10 01:04:14;;;;;;;1.73;1.17;;;;;;;0.13;100.00;100736.13;5101786;28;20199;-62
2024/01/10 01:06:41;;;;;;;1.37;1.27;;;;;;;0.17;100.00;100727.00;5110131;28;20222;-62
2024/01/10 01:09:07;;;;;;;2.30;1.57;;;;;;;0.16;100.00;100726.16;5105779;28;20255;-62
2024/01/10 01:11:34;;;;;;;0.93;0.93;;;;;;;0.20;100.00;100724.56;5104915;28;20659;-63
2024/01/10 01:14:01;;;;;;;2.30;2.07;;;;;;;0.23;100.00;100728.03;5094307;28;20661;-63
2024/01/10 01:16:27;;;;;;;0.77;0.77;;;;;;;0.29;100.00;100732.44;5102400;28;20624;-63
2024/01/10 01:18:56;;;;;;;0.80;0.80;;;;;;;0.24;100.00;100717.16;5098943;28;20245;-63
2024/01/10 01:21:22;;;;;;;0.70;0.70;;;;;;;0.32;100.00;100730.88;5099525;28;20248;-63
2024/01/10 01:23:49;;;;;;;2.53;1.60;;;;;;;0.35;100.00;100728.47;5099582;28;20191;-63
2024/01/10 01:26:16;;;;;;;2.13;2.13;;;;;;;0.34;100.00;100735.97;5092640;28;20199;-62
2024/01/10 01:28:42;;;;;;;0.90;0.90;;;;;;;0.33;100.00;100736.75;5101627;28;20697;-62
2024/01/10 01:31:09;;;;;;;0.90;0.90;;;;;;;0.29;100.00;100727.41;5092798;28;20207;-63
2024/01/10 01:33:36;;;;;;;1.53;1.53;;;;;;;0.30;100.00;100726.56;5092358;28;20200;-62
2024/01/10 01:36:04;;;;;;;1.20;1.20;;;;;;;0.33;100.00;100731.72;5092970;28;20199;-62
2024/01/10 01:38:31;;;;;;;0.60;0.60;;;;;;;0.32;100.00;100728.38;5092587;28;20269;-63
2024/01/10 01:40:57;;;;;;;1.57;1.57;;;;;;;0.37;100.00;100728.50;5103872;28;20226;-63
2024/01/10 01:43:26;;;;;;;1.23;1.23;;;;;;;0.36;100.00;100726.78;5113135;28;20274;-63
2024/01/10 01:45:55;;;;;;;0.90;0.90;;;;;;;0.27;100.00;100714.72;5112774;27;20274;-63
2024/01/10 01:48:23;;;;;;;0.97;0.97;;;;;;;0.34;100.00;100723.34;5090953;27;20713;-63
2024/01/10 01:50:53;;;;;;;0.80;0.80;;;;;;;0.37;100.00;100723.44;5092650;28;20663;-63
2024/01/10 01:53:21;;;;;;;0.77;0.77;;;;;;;0.29;100.00;100704.72;5092009;28;20203;-63
2024/01/10 01:55:48;;;;;;;0.60;0.60;;;;;;;0.41;100.00;100717.69;5092027;28;20195;-62
2024/01/10 01:58:16;;;;;;;0.70;0.70;;;;;;;0.47;100.00;100725.47;5100602;28;20702;-63
2024/01/10 02:00:43;;;;;;;1.27;1.27;;;;;;;0.51;100.00;100727.28;5110157;28;20264;-63
2024/01/10 02:03:10;;;;;;;0.80;0.80;;;;;;;0.52;100.00;100714.69;5104695;28;20199;-63
2024/01/10 02:05:37;;;;;;;1.73;1.63;;;;;;;0.58;100.00;100713.19;5094726;28;20272;-62
2024/01/10 02:08:04;;;;;;;1.03;1.03;;;;;;;0.61;100.00;100714.13;5100619;28;20195;-65
2024/01/10 02:10:32;;;;;;;0.70;0.70;;;;;;;0.64;100.00;100714.22;5098286;28;20652;-65
2024/01/10 02:12:59;;;;;;;0.60;0.60;;;;;;;0.65;100.00;100710.88;5103176;28;20195;-65
2024/01/10 02:15:26;;;;;;;0.70;0.70;;;;;;;0.67;100.00;100706.75;5101542;28;20758;-65
2024/01/10 02:17:53;;;;;;;0.93;0.93;;;;;;;0.72;100.00;100705.22;5101190;28;20272;-65
2024/01/10 02:20:20;;;;;;;0.70;0.70;;;;;;;0.71;100.00;100698.44;5101553;28;20249;-65
2024/01/10 02:22:48;;;;;;;1.07;1.07;;;;;;;0.71;100.00;100711.06;5102225;28;20214;-65
2024/01/10 02:25:16;;;;;;;1.00;1.00;;;;;;;0.72;100.00;100712.78;5101088;28;20204;-65
2024/01/10 02:27:43;;;;;;;0.87;0.87;;;;;;;0.71;100.00;100695.09;5105880;28;20192;-61
2024/01/10 02:30:10;;;;;;;0.73;0.73;;;;;;;0.69;100.00;100697.53;5097536;28;20710;-61
2024/01/10 02:32:37;;;;;;;1.40;1.40;;;;;;;0.72;100.00;100705.22;5093911;28;20203;-61
2024/01/10 02:35:05;;;;;;;1.47;1.47;;;;;;;0.46;100.00;100668.25;5108572;28;20572;-61
2024/01/10 02:37:32;;;;;;;1.00;1.00;;;;;;;0.72;100.00;100707.72;5091413;28;20594;-61
2024/01/10 02:39:58;;;;;;;0.93;0.93;;;;;;;0.74;100.00;100696.03;5091259;28;20272;-61
2024/01/10 02:42:27;;;;;;;0.80;0.80;;;;;;;0.67;100.00;100691.59;5107955;28;20199;-61
2024/01/10 02:44:54;;;;;;;0.97;0.97;;;;;;;0.69;100.00;100692.50;5111731;28;20663;-61
2024/01/10 02:47:21;;;;;;;0.70;0.70;;;;;;;0.72;100.00;100702.69;5098634;28;20199;-62
2024/01/10 02:49:48;;;;;;;0.60;0.60;;;;;;;0.62;100.00;100680.50;5091253;28;20675;-61
2024/01/10 02:52:14;;;;;;;1.80;1.80;;;;;;;0.75;100.00;100702.78;5099479;28;20615;-61
2024/01/10 02:54:41;;;;;;;1.10;1.10;;;;;;;0.69;100.00;100704.25;5091909;28;20191;-61
2024/01/10 02:57:08;;;;;;;0.60;0.60;;;;;;;0.69;100.00;100702.59;5102855;28;20195;-61
2024/01/10 02:59:36;;;;;;;1.20;1.20;;;;;;;0.67;100.00;100700.84;5097749;28;20320;-61
2024/01/10 03:02:03;;;;;;;1.47;1.47;;;;;;;0.68;100.00;100705.91;5108970;28;20195;-61
2024/01/10 03:04:30;;;;;;;0.90;0.90;;;;;;;0.68;100.00;100705.09;5110998;28;20241;-61
2024/01/10 03:06:57;;;;;;;1.20;1.20;;;;;;;0.62;100.00;100690.59;5103698;28;20240;-61
2024/01/10 03:09:23;;;;;;;0.97;0.97;;;;;;;0.69;100.00;100701.72;5103323;28;20257;-61
2024/01/10 03:11:50;;;;;;;1.00;1.00;;;;;;;0.71;100.00;100700.97;5106162;28;20248;-61
2024/01/10 03:14:17;;;;;;;0.93;0.93;;;;;;;0.73;100.00;100706.94;5091981;28;20667;-62
2024/01/10 03:16:45;;;;;;;0.60;0.60;;;;;;;0.73;100.00;100699.34;5090679;28;20268;-61
2024/01/10 03:19:12;;;;;;;0.80;0.80;;;;;;;0.75;100.00;100702.78;5104636;28;20651;-61
2024/01/10 03:21:39;;;;;;;1.17;1.17;;;;;;;0.79;100.00;100694.50;5110269;28;20229;-61
2024/01/10 03:24:06;;;;;;;1.10;1.10;;;;;;;0.79;100.00;100699.53;5097311;28;20252;-61
2024/01/10 03:26:33;;;;;;;1.37;1.37;;;;;;;0.79;100.00;100699.53;5100741;28;20215;-61
2024/01/10 03:29:00;;;;;;;0.83;0.83;;;;;;;0.81;100.00;100697.91;5090401;28;20195;-61
2024/01/10 03:31:27;;;;;;;0.83;0.83;;;;;;;0.82;100.00;100699.63;5089334;28;20203;-61
2024/01/10 03:33:55;;;;;;;1.60;1.60;;;;;;;0.86;100.00;100696.38;5093405;28;20685;-61
2024/01/10 03:36:22;;;;;;;1.03;1.03;;;;;;;0.81;100.00;100692.84;5090250;28;20195;-61
2024/01/10 03:38:49;;;;;;;0.70;0.70;;;;;;;0.83;100.00;100690.38;5104806;28;20248;-61
2024/01/10 03:41:16;;;;;;;0.67;0.67;;;;;;;0.80;100.00;100690.31;5109615;28;20629;-61
2024/01/10 03:43:43;;;;;;;1.23;1.23;;;;;;;0.76;100.00;100684.31;5099733;28;20315;-61
2024/01/10 03:46:10;;;;;;;1.17;1.13;;;;;;;0.73;100.00;100694.31;5107863;28;20312;-61
2024/01/10 03:48:38;;;;;;;1.40;1.40;;;;;;;0.70;100.00;100693.34;5097451;28;20203;-61
2024/01/10 03:51:06;;;;;;;1.17;1.17;;;;;;;0.61;100.00;100688.91;5090186;28;20191;-61
2024/01/10 03:53:36;;;;;;;0.77;0.77;;;;;;;0.60;100.00;100694.75;5094347;28;20198;-61
2024/01/10 03:56:05;;;;;;;0.90;0.90;;;;;;;0.62;100.00;100694.78;5103750;28;20200;-62
2024/01/10 03:58:32;;;;;;;1.33;1.33;;;;;;;0.57;100.00;100707.28;5090254;28;20215;-61
2024/01/10 04:00:58;;;;;;;1.13;1.13;;;;;;;0.56;100.00;100705.56;5107459;28;20195;-61
2024/01/10 04:03:25;;;;;;;1.03;1.03;;;;;;;0.57;100.00;100697.19;5091008;28;20667;-61
2024/01/10 04:05:52;;;;;;;0.70;0.70;;;;;;;0.60;100.00;100696.41;5101395;28;20633;-61
2024/01/10 04:08:20;;;;;;;2.10;1.07;;;;;;;0.68;100.00;100700.88;5089993;28;20207;-62
2024/01/10 04:10:46;;;;;;;0.63;0.63;;;;;;;0.70;100.00;100706.84;5088950;28;20674;-61
2024/01/10 04:13:13;;;;;;;0.90;0.90;;;;;;;0.73;100.00;100704.41;5089664;28;20203;-61
2024/01/10 04:15:40;;;;;;;0.70;0.70;;;;;;;0.78;100.00;100705.38;5095036;28;20256;-61
2024/01/10 04:18:07;;;;;;;0.83;0.83;;;;;;;0.82;100.00;100708.88;5106493;28;20223;-61
2024/01/10 04:20:34;;;;;;;1.17;1.17;;;;;;;0.85;100.00;100704.75;5106334;28;20251;-61
2024/01/10 04:23:00;;;;;;;0.80;0.80;;;;;;;0.91;100.00;100712.50;5088777;28;20199;-60
2024/01/10 04:25:28;;;;;;;0.90;0.90;;;;;;;0.91;100.00;100715.03;5089567;28;20244;-61
2024/01/10 04:27:55;;;;;;;1.00;1.00;;;;;;;0.95;100.00;100709.28;5093566;28;20240;-61
2024/01/10 04:30:22;;;;;;;1.43;1.37;;;;;;;0.97;100.00;100720.25;5100680;28;20210;-61
2024/01/10 04:32:49;;;;;;;1.43;1.43;;;;;;;0.96;100.00;100723.63;5106207;28;20632;-62
2024/01/10 04:35:15;;;;;;;0.90;0.87;;;;;;;0.88;100.00;100707.38;5105851;28;20199;-61
2024/01/10 04:37:42;;;;;;;0.90;0.90;;;;;;;0.99;100.00;100732.94;5092981;28;20204;-61
2024/01/10 04:40:10;;;;;;;0.90;0.90;;;;;;;0.96;100.00;100735.38;5093206;28;20257;-61
2024/01/10 04:42:38;;;;;;;0.80;0.80;;;;;;;0.89;100.00;100736.00;5092285;28;20256;-61
2024/01/10 04:45:07;;;;;;;0.73;0.73;;;;;;;0.95;100.00;100736.19;5093340;28;20263;-61
2024/01/10 04:47:33;;;;;;;0.77;0.77;;;;;;;0.92;100.00;100736.97;5107842;28;20292;-61
2024/01/10 04:50:00;;;;;;;1.37;1.37;;;;;;;0.87;100.00;100741.00;5101359;28;20204;-61
2024/01/10 04:52:27;;;;;;;1.17;1.17;;;;;;;0.81;100.00;100737.47;5106160;28;20233;-61
2024/01/10 04:54:53;;;;;;;0.70;0.70;;;;;;;0.81;100.00;100740.81;5103702;28;20736;-61
2024/01/10 04:57:20;;;;;;;0.60;0.60;;;;;;;0.79;100.00;100744.97;5107903;28;20551;-61
2024/01/10 04:59:48;;;;;;;1.17;1.17;;;;;;;0.78;100.00;100749.97;5098411;28;20721;-61
2024/01/10 05:02:15;;;;;;;1.23;1.23;;;;;;;0.74;100.00;100745.66;5102882;28;20257;-61
2024/01/10 05:04:42;;;;;;;0.70;0.70;;;;;;;0.72;100.00;100752.28;5101547;28;20288;-61
2024/01/10 05:07:09;;;;;;;0.80;0.80;;;;;;;0.67;100.00;100752.19;5097015;28;20202;-61
2024/01/10 05:09:35;;;;;;;1.50;1.50;;;;;;;0.66;100.00;100758.03;5097804;28;20196;-61
2024/01/10 05:12:02;;;;;;;1.00;1.00;;;;;;;0.68;100.00;100751.34;5113818;28;20670;-61
2024/01/10 05:14:29;;;;;;;0.80;0.80;;;;;;;0.60;100.00;100737.66;5106302;28;20268;-62
2024/01/10 05:16:57;;;;;;;0.70;0.70;;;;;;;0.68;100.00;100748.00;5100888;28;20207;-61
2024/01/10 05:19:23;;;;;;;1.03;1.03;;;;;;;0.68;100.00;100755.56;5095584;28;20228;-62
2024/01/10 05:21:50;;;;;;;0.97;0.97;;;;;;;0.68;100.00;100751.34;5102467;28;20261;-61
2024/01/10 05:24:18;;;;;;;1.07;1.07;;;;;;;0.67;100.00;100752.19;5092494;28;20202;-61
2024/01/10 05:26:45;;;;;;;0.60;0.60;;;;;;;0.66;100.00;100755.50;5093757;28;20701;-61
2024/01/10 05:29:11;;;;;;;1.00;1.00;;;;;;;0.66;100.00;100752.97;5090175;28;20617;-61
2024/01/10 05:31:38;;;;;;;1.00;1.00;;;;;;;0.68;100.00;100753.88;5095645;28;20200;-62
2024/01/10 05:34:06;;;;;;;0.87;0.87;;;;;;;0.70;100.00;100759.84;5092018;28;20208;-61
2024/01/10 05:36:33;;;;;;;1.07;1.07;;;;;;;0.71;100.00;100766.56;5091559;28;20233;-61
2024/01/10 05:39:00;;;;;;;1.07;1.07;;;;;;;0.50;100.00;100731.47;5094387;28;20713;-61
2024/01/10 05:41:27;;;;;;;1.47;1.37;;;;;;;0.62;100.00;100761.25;5097244;28;20268;-61
2024/01/10 05:43:54;;;;;;;1.20;1.20;;;;;;;0.71;100.00;100776.66;5092265;28;20207;-61
2024/01/10 05:46:20;;;;;;;0.90;0.90;;;;;;;0.72;100.00;100772.47;5102403;28;20234;-61
2024/01/10 05:48:48;;;;;;;0.70;0.70;;;;;;;0.72;100.00;100780.91;5092510;28;20227;-61
2024/01/10 05:51:17;;;;;;;0.70;0.70;;;;;;;0.74;100.00;100770.88;5091683;28;20678;-61
2024/01/10 05:53:43;;;;;;;0.93;0.93;;;;;;;0.72;100.00;100772.47;5091620;28;20204;-61
2024/01/10 05:56:10;;;;;;;0.67;0.67;;;;;;;0.67;100.00;100768.97;5095891;28;20633;-61
2024/01/10 05:58:37;;;;;;;0.67;0.67;;;;;;;0.64;100.00;100774.78;5098649;28;20284;-62
2024/01/10 06:01:04;;;;;;;0.60;0.60;;;;;;;0.63;100.00;100773.06;5108566;28;20251;-61
2024/01/10 06:03:31;;;;;;;0.80;0.80;;;;;;;0.62;100.00;100773.00;5098783;28;20206;-61
2024/01/10 06:05:58;;;;;;;0.70;0.70;;;;;;;0.62;100.00;100768.81;5091072;28;20564;-62
2024/01/10 06:08:28;;;;;;;1.07;1.07;;;;;;;0.63;100.00;100783.16;5092076;28;20594;-61
2024/01/10 06:10:55;;;;;;;0.93;0.93;;;;;;;0.61;100.00;100779.75;5087272;28;20223;-61
2024/01/10 06:13:21;;;;;;;0.80;0.80;;;;;;;0.60;100.00;100788.13;5089419;28;20260;-61
2024/01/10 06:15:48;;;;;;;0.70;0.70;;;;;;;0.67;100.00;100795.06;5092205;28;20199;-61
2024/01/10 06:18:15;;;;;;;1.50;1.50;;;;;;;0.73;100.00;100787.69;5096522;28;20203;-61
2024/01/10 06:20:42;;;;;;;0.77;0.77;;;;;;;0.77;100.00;100792.03;5089497;28;20200;-61
2024/01/10 06:23:08;;;;;;;1.53;1.53;;;;;;;0.83;100.00;100798.94;5089193;28;20206;-61
2024/01/10 06:25:37;;;;;;;1.00;1.00;;;;;;;0.88;100.00;100803.31;5090958;28;20204;-61
2024/01/10 06:28:04;;;;;;;2.60;2.53;;;;;;;0.91;100.00;100800.88;5098652;28;20206;-60
2024/01/10 06:30:31;;;;;;;1.07;1.07;;;;;;;0.95;100.00;100816.97;5091064;28;20203;-61
2024/01/10 06:32:57;;;;;;;0.77;0.77;;;;;;;0.94;100.00;100826.22;5096346;28;20230;-61
2024/01/10 06:35:24;;;;;;;0.97;0.97;;;;;;;0.96;100.00;100826.28;5091063;28;20202;-61
2024/01/10 06:37:51;;;;;;;1.23;1.23;;;;;;;0.86;100.00;100815.03;5093736;28;20535;-61
2024/01/10 06:40:17;;;;;;;0.70;0.70;;;;;;;0.89;100.00;100832.78;5087795;28;20649;-61
2024/01/10 06:42:46;;;;;;;1.77;1.67;;;;;;;0.91;100.00;100836.22;5098971;28;20211;-61
2024/01/10 06:45:12;;;;;;;0.70;0.70;;;;;;;0.84;100.00;100829.25;5096109;28;20218;-60
2024/01/10 06:47:39;;;;;;;1.17;1.17;;;;;;;0.82;100.00;100838.47;5097925;28;20241;-61
2024/01/10 06:50:08;;;;;;;2.27;2.27;;;;;;;0.81;100.00;100840.94;5094765;28;20195;-61
2024/01/10 06:52:35;;;;;;;1.20;1.20;;;;;;;0.80;100.00;100841.75;5098372;28;20234;-61
2024/01/10 06:55:04;;;;;;;1.07;1.07;;;;;;;0.78;100.00;100846.72;5096427;28;20200;-61
2024/01/10 06:57:30;;;;;;;2.00;1.17;;;;;;;0.77;100.00;100845.03;5094834;28;20207;-61
2024/01/10 06:59:58;;;;;;;0.73;0.73;;;;;;;0.77;100.00;100845.03;5095507;28;20283;-61
2024/01/10 07:02:25;;;;;;;0.80;0.80;;;;;;;0.76;100.00;100848.34;5087707;28;20207;-61
2024/01/10 07:04:52;;;;;;;0.50;0.50;;;;;;;0.76;100.00;100845.84;5099627;28;20195;-61
2024/01/10 07:07:18;;;;;;;0.97;0.97;;;;;;;0.76;100.00;100850.88;5099544;28;20664;-61
2024/01/10 07:09:45;;;;;;;0.60;0.60;;;;;;;0.75;100.00;100854.22;5097020;28;20196;-60
2024/01/10 07:12:12;;;;;;;0.80;0.80;;;;;;;0.70;100.00;100853.22;5099647;28;20198;-61
2024/01/10 07:14:39;;;;;;;1.17;1.17;;;;;;;0.73;100.00;100862.53;5102784;28;20217;-61
2024/01/10 07:17:08;;;;;;;0.97;0.97;;;;;;;0.69;100.00;100858.19;5096047;28;20723;-61
2024/01/10 07:19:34;;;;;;;0.93;0.93;;;;;;;0.57;100.00;100863.72;5099129;28;20304;-61
2024/01/10 07:22:02;;;;;;;1.47;1.47;;;;;;;0.39;100.00;100858.03;5095050;28;20206;-61
2024/01/10 07:24:28;;;;;;;1.73;1.73;;;;;;;0.31;100.00;100864.50;5097716;28;20892;-60
2024/01/10 07:26:56;;;;;;;0.83;0.83;;;;;;;0.30;100.00;100865.28;5097329;28;20203;-60
2024/01/10 07:29:23;;;;;;;1.37;1.37;;;;;;;0.34;100.00;100867.13;5099958;28;20201;-61
2024/01/10 07:31:52;;;;;;;1.20;1.20;;;;;;;0.34;100.00;100874.69;5099681;28;20203;-61
2024/01/10 07:34:21;;;;;;;1.63;1.63;;;;;;;0.35;100.00;100871.38;5101147;28;20203;-61
2024/01/10 07:36:48;;;;;;;1.30;1.30;;;;;;;0.30;100.00;100868.69;5096639;28;20285;-61
2024/01/10 07:39:18;;;;;;;1.30;1.30;;;;;;;0.30;100.00;100882.94;5094534;28;20235;-62
2024/01/10 07:41:44;;;;;;;0.70;0.70;;;;;;;0.27;100.00;100877.78;5101899;28;20191;-62
2024/01/10 07:44:11;;;;;;;0.90;0.90;;;;;;;0.20;100.00;100866.63;5092668;28;20728;-61
2024/01/10 07:46:38;;;;;;;0.80;0.80;;;;;;;0.23;100.00;100886.91;5092761;28;20252;-62
2024/01/10 07:49:05;;;;;;;1.60;1.60;;;;;;;0.25;100.00;100884.47;5101407;28;20191;-61
2024/01/10 07:51:33;;;;;;;1.70;1.70;;;;;;;0.28;100.00;100882.03;5095099;28;20282;-62
2024/01/10 07:54:00;;;;;;;0.80;0.80;;;;;;;0.16;100.00;100879.09;5104011;28;20825;-61
2024/01/10 07:56:27;;;;;;;1.50;1.50;;;;;;;0.23;100.00;100891.09;5102097;28;20199;-61
2024/01/10 07:58:54;;;;;;;1.07;1.07;;;;;;;0.22;100.00;100884.38;5101605;28;20219;-62
2024/01/10 08:01:21;;;;;;;0.70;0.70;;;;;;;0.31;100.00;100888.06;5101405;28;20248;-62
2024/01/10 08:03:48;;;;;;;1.13;1.13;;;;;;;0.41;100.00;100896.78;5102964;28;20190;-62
2024/01/10 08:06:14;;;;;;;0.60;0.60;;;;;;;0.44;100.00;100891.84;5094793;28;20208;-61
2024/01/10 08:08:42;;;;;;;1.33;1.33;;;;;;;0.53;100.00;100882.06;5099849;28;20198;-61
2024/01/10 08:11:09;;;;;;;1.40;1.40;;;;;;;0.61;100.00;100893.28;5100009;28;20668;-61
2024/01/10 08:13:36;;;;;;;0.53;0.53;;;;;;;0.69;100.00;100899.44;5104507;28;20531;-61
2024/01/10 08:16:03;;;;;;;1.47;1.47;;;;;;;0.77;100.00;100897.19;5105439;28;20282;-63
2024/01/10 08:18:31;;;;;;;1.13;1.13;;;;;;;0.72;100.00;100886.06;5102148;28;20670;-62
2024/01/10 08:20:58;;;;;;;1.17;0.87;;;;;;;0.78;100.00;100894.69;5104649;28;20222;-62
2024/01/10 08:23:25;;;;;;;0.90;0.90;;;;;;;0.85;100.00;100895.75;5099221;28;20195;-62
2024/01/10 08:25:52;;;;;;;0.70;0.70;;;;;;;0.98;100.00;100892.81;5104520;28;20273;-62
2024/01/10 08:28:19;;;;;;;0.90;0.90;;;;;;;1.07;100.00;100888.03;5104602;28;20195;-62
2024/01/10 08:30:46;;;;;;;1.40;1.40;;;;;;;1.12;100.00;100893.25;5100126;28;20199;-62
2024/01/10 08:33:12;;;;;;;0.97;0.97;;;;;;;1.09;100.00;100890.63;5107255;28;20210;-62
2024/01/10 08:35:40;;;;;;;0.90;0.90;;;;;;;1.09;100.00;100896.56;5105973;28;20252;-62
2024/01/10 08:38:07;;;;;;;0.73;0.73;;;;;;;1.14;100.00;100894.16;5099039;28;20613;-62
2024/01/10 08:40:34;;;;;;;1.33;1.33;;;;;;;1.17;100.00;100894.25;5103027;28;20234;-62
2024/01/10 08:43:02;;;;;;;1.17;1.17;;;;;;;1.15;100.00;100890.81;5105986;28;20198;-62
2024/01/10 08:45:29;;;;;;;1.17;1.17;;;;;;;1.10;100.00;100892.38;5105172;28;20278;-63
2024/01/10 08:47:57;;;;;;;0.80;0.80;;;;;;;1.18;100.00;100895.97;5103686;28;20671;-62
2024/01/10 08:50:24;;;;;;;2.37;2.27;;;;;;;1.18;100.00;100898.50;5102667;28;20190;-63
2024/01/10 08:52:51;;;;;;;0.63;0.63;;;;;;;1.22;100.00;100893.59;5100902;28;20199;-63
2024/01/10 08:55:18;;;;;;;0.83;0.83;;;;;;;1.02;100.00;100889.59;5100156;28;20200;-63
2024/01/10 08:57:45;;;;;;;0.80;0.80;;;;;;;1.00;100.00;100889.53;5102508;28;20202;-63
2024/01/10 09:00:16;;;;;;;0.97;0.97;;;;;;;1.05;100.00;100895.59;5107145;28;20210;-63
2024/01/10 09:02:43;;;;;;;0.77;0.77;;;;;;;1.16;100.00;100890.03;5099172;28;21011;-63
2024/01/10 09:05:10;;;;;;;0.87;0.87;;;;;;;1.17;100.00;100884.13;5108118;28;20195;-63
2024/01/10 09:07:37;;;;;;;0.77;0.77;;;;;;;1.10;100.00;100880.56;5105302;28;20194;-63
2024/01/10 09:10:05;;;;;;;0.70;0.70;;;;;;;1.16;100.00;100877.41;5108438;28;20187;-63
2024/01/10 09:12:32;;;;;;;0.90;0.90;;;;;;;1.22;100.00;100875.91;5104149;28;20227;-63
2024/01/10 09:14:59;;;;;;;1.17;1.07;;;;;;;1.25;100.00;100877.66;5105016;28;20191;-63
2024/01/10 09:17:27;;;;;;;0.60;0.60;;;;;;;1.35;100.00;100872.09;5109466;28;20218;-63
2024/01/10 09:19:54;;;;;;;1.67;1.67;;;;;;;1.31;100.00;100880.38;5101395;28;20253;-63
2024/01/10 09:22:21;;;;;;;0.80;0.80;;;;;;;1.46;100.00;100868.19;5104862;28;20198;-63
2024/01/10 09:24:48;;;;;;;1.47;1.47;;;;;;;1.57;100.00;100876.97;5103735;28;20249;-63
2024/01/10 09:27:16;;;;;;;0.73;0.73;;;;;;;1.60;100.00;100879.59;5101738;28;20688;-63
2024/01/10 09:29:43;;;;;;;1.07;1.07;;;;;;;1.69;100.00;100867.22;5102574;28;20230;-63
2024/01/10 09:32:09;;;;;;;0.60;0.60;;;;;;;1.79;100.00;100864.13;5101002;28;20295;-63
2024/01/10 09:34:37;;;;;;;0.90;0.90;;;;;;;1.87;100.00;100867.75;5101188;28;20195;-63
2024/01/10 09:37:05;;;;;;;1.80;1.70;;;;;;;1.93;100.00;100867.06;5102529;28;20195;-63
2024/01/10 09:39:31;;;;;;;0.70;0.70;;;;;;;1.94;100.00;100861.19;5093413;28;20227;-63
2024/01/10 09:41:59;;;;;;;0.70;0.70;;;;;;;1.94;100.00;100864.56;5092692;28;20219;-64
2024/01/10 09:44:27;;;;;;;1.03;0.90;;;;;;;2.03;100.00;100858.91;5097616;28;20195;-63
2024/01/10 09:46:55;;;;;;;5.70;0.90;;;;;;;2.11;100.00;100858.28;5096762;28;20276;-63
2024/01/10 09:49:22;;;;;;;0.70;0.70;;;;;;;2.03;100.00;100839.53;5103118;28;20192;-64
2024/01/10 09:51:52;;;;;;;0.70;0.70;;;;;;;2.11;100.00;100858.28;5101720;28;20245;-63
2024/01/10 09:54:19;;;;;;;1.33;0.73;;;;;;;2.18;100.00;100859.31;5092124;28;20254;-64
2024/01/10 09:56:53;;;;;;;0.73;0.73;;;;;;;2.21;100.00;100853.47;5099335;27;20586;-63
2024/01/10 09:59:19;;;;;;;0.57;0.57;;;;;;;2.28;100.00;100850.28;5101768;28;20201;-63
2024/01/10 10:01:46;;;;;;;0.80;0.80;;;;;;;2.42;100.00;100849.00;5099666;28;20207;-64
2024/01/10 10:04:15;;;;;;;0.97;0.97;;;;;;;2.54;100.00;100849.28;5098968;28;20675;-64
2024/01/10 10:06:41;;;;;;;0.73;0.73;;;;;;;2.55;100.00;100841.72;5099343;28;20202;-64
2024/01/10 10:09:11;;;;;;;0.67;0.67;;;;;;;2.55;100.00;100845.94;5100091;28;20253;-64
2024/01/10 10:11:38;;;;;;;0.87;0.87;;;;;;;2.49;100.00;100840.72;5095441;28;20198;-64
2024/01/10 10:14:19;;;;;;;0.87;0.87;;;;;;;2.70;100.00;100836.19;5092210;28;20208;-63
2024/01/10 10:16:46;;;;;;;1.03;1.03;;;;;;;2.77;100.00;100833.00;5095995;28;20261;-64
2024/01/10 10:19:13;;;;;;;0.87;0.87;;;;;;;2.83;100.00;100830.59;5098643;28;20275;-64
2024/01/10 10:21:40;;;;;;;0.70;0.70;;;;;;;2.76;100.00;100843.94;5099386;28;20681;-64
2024/01/10 10:24:09;;;;;;;1.20;1.20;;;;;;;2.59;100.00;100835.06;5098913;28;20210;-64
2024/01/10 10:26:36;;;;;;;0.60;0.60;;;;;;;2.58;100.00;100831.69;5102794;28;20205;-64
2024/01/10 10:29:04;;;;;;;0.70;0.70;;;;;;;2.50;100.00;100801.94;5099337;28;20256;-63
2024/01/10 10:31:32;;;;;;;0.90;0.90;;;;;;;2.66;100.00;100821.75;5092891;28;20252;-64
2024/01/10 10:34:00;;;;;;;0.50;0.50;;;;;;;2.66;100.00;100819.22;5095318;28;20205;-64
2024/01/10 10:36:27;;;;;;;1.00;1.00;;;;;;;2.68;100.00;100812.53;5102664;28;20647;-64
2024/01/10 10:38:54;;;;;;;0.77;0.77;;;;;;;2.60;100.00;100808.94;5101949;28;20695;-64
2024/01/10 10:41:22;;;;;;;1.57;1.57;;;;;;;2.57;100.00;100798.75;5095002;28;20211;-64
2024/01/10 10:43:51;;;;;;;0.60;0.60;;;;;;;2.53;100.00;100794.41;5100205;28;20200;-64
2024/01/10 10:46:17;;;;;;;0.60;0.60;;;;;;;2.56;100.00;100797.00;5101641;28;20222;-64
2024/01/10 10:48:44;;;;;;;0.93;0.93;;;;;;;2.53;100.00;100797.81;5099346;28;20211;-64
2024/01/10 10:51:13;;;;;;;1.83;0.97;;;;;;;2.54;100.00;100798.66;5099272;28;20191;-64
2024/01/10 10:53:41;;;;;;;0.93;0.93;;;;;;;2.47;100.00;100789.22;5094748;28;20223;-64
2024/01/10 10:56:08;;;;;;;0.60;0.60;;;;;;;2.47;100.00;100786.69;5099484;28;20277;-63
2024/01/10 10:58:40;;;;;;;0.70;0.70;;;;;;;2.28;100.00;100764.28;5097637;28;20621;-63
2024/01/10 11:01:08;;;;;;;0.80;0.80;;;;;;;2.30;100.00;100782.88;5098472;28;20211;-63
2024/01/10 11:03:37;;;;;;;0.90;0.90;;;;;;;2.30;100.00;100782.88;5095883;28;20209;-63
2024/01/10 11:06:05;;;;;;;0.90;0.90;;;;;;;2.36;100.00;100777.97;5098332;28;20284;-63
2024/01/10 11:08:36;;;;;;;1.00;1.00;;;;;;;2.42;100.00;100775.59;5098883;28;20248;-63
2024/01/10 11:11:06;;;;;;;0.73;0.73;;;;;;;2.49;100.00;100769.84;5097783;28;20271;-63
2024/01/10 11:13:52;;;;;;;0.70;0.70;;;;;;;2.51;100.00;100765.69;5102756;28;20204;-63
2024/01/10 11:16:53;;;;;;;1.47;1.47;;;;;;;2.50;100.00;100763.97;5102971;28;20207;-63
2024/01/10 11:20:03;;;;;;;0.80;0.80;;;;;;;2.52;100.00;100757.28;5095319;28;20215;-63
2024/01/10 11:22:47;;;;;;;2.13;1.03;;;;;;;2.57;100.00;100758.25;5085244;28;20287;-73
2024/01/10 11:25:15;;;;;;;1.57;1.53;;;;;;;2.59;100.00;100746.47;5089703;28;20260;-74